sensor_id;sensor_type;location;lat;lon;timestamp;P1;durP1;ratioP1;P2;durP2;ratioP2
54929;SDS011;40833;53.238;6.576;2024-02-21T00:01:50;21.97;;;3.57;;
54929;SDS011;40833;53.238;6.576;2024-02-21T00:04:16;22.73;;;3.20;;
54929;SDS011;40833;53.238;6.576;2024-02-21T00:06:41;16.33;;;2.63;;
54929;SDS011;40833;53.238;6.576;2024-02-21T00:09:07;20.47;;;2.60;;
54929;SDS011;40833;53.238;6.576;2024-02-21T00:11:34;22.97;;;3.20;;
54929;SDS011;40833;53.238;6.576;2024-02-21T00:14:00;18.67;;;2.90;;
54929;SDS011;40833;53.238;6.576;2024-02-21T00:16:26;17.03;;;2.43;;
54929;SDS011;40833;53.238;6.576;2024-02-21T00:18:51;21.27;;;2.77;;
54929;SDS011;40833;53.238;6.576;2024-02-21T00:21:17;18.27;;;3.27;;
54929;SDS011;40833;53.238;6.576;2024-02-21T00:23:46;20.47;;;3.20;;
54929;SDS011;40833;53.238;6.576;2024-02-21T00:26:14;25.03;;;3.63;;
54929;SDS011;40833;53.238;6.576;2024-02-21T00:28:40;21.73;;;3.10;;
54929;SDS011;40833;53.238;6.576;2024-02-21T00:31:06;19.40;;;2.73;;
54929;SDS011;40833;53.238;6.576;2024-02-21T00:33:31;22.67;;;3.40;;
54929;SDS011;40833;53.238;6.576;2024-02-21T00:35:57;25.03;;;3.77;;
54929;SDS011;40833;53.238;6.576;2024-02-21T00:38:23;19.00;;;3.00;;
54929;SDS011;40833;53.238;6.576;2024-02-21T00:40:48;22.17;;;3.90;;
54929;SDS011;40833;53.238;6.576;2024-02-21T00:43:14;22.30;;;2.83;;
54929;SDS011;40833;53.238;6.576;2024-02-21T00:45:40;27.67;;;4.07;;
54929;SDS011;40833;53.238;6.576;2024-02-21T00:48:05;25.80;;;3.63;;
54929;SDS011;40833;53.238;6.576;2024-02-21T00:50:31;33.83;;;4.60;;
54929;SDS011;40833;53.238;6.576;2024-02-21T00:52:57;30.70;;;4.53;;
54929;SDS011;40833;53.238;6.576;2024-02-21T00:55:23;28.50;;;4.47;;
54929;SDS011;40833;53.238;6.576;2024-02-21T00:57:48;25.87;;;4.10;;
54929;SDS011;40833;53.238;6.576;2024-02-21T01:00:14;21.77;;;3.80;;
54929;SDS011;40833;53.238;6.576;2024-02-21T01:02:40;26.43;;;5.83;;
54929;SDS011;40833;53.238;6.576;2024-02-21T01:05:06;24.53;;;4.63;;
54929;SDS011;40833;53.238;6.576;2024-02-21T01:07:32;27.63;;;5.03;;
54929;SDS011;40833;53.238;6.576;2024-02-21T01:09:57;25.30;;;4.33;;
54929;SDS011;40833;53.238;6.576;2024-02-21T01:12:23;29.37;;;4.80;;
54929;SDS011;40833;53.238;6.576;2024-02-21T01:14:49;27.40;;;4.27;;
54929;SDS011;40833;53.238;6.576;2024-02-21T01:17:15;29.43;;;5.40;;
54929;SDS011;40833;53.238;6.576;2024-02-21T01:19:41;30.23;;;4.90;;
54929;SDS011;40833;53.238;6.576;2024-02-21T01:22:07;28.57;;;4.20;;
54929;SDS011;40833;53.238;6.576;2024-02-21T01:24:32;30.77;;;5.20;;
54929;SDS011;40833;53.238;6.576;2024-02-21T01:26:58;33.67;;;4.77;;
54929;SDS011;40833;53.238;6.576;2024-02-21T01:29:24;23.77;;;4.70;;
54929;SDS011;40833;53.238;6.576;2024-02-21T01:31:50;30.13;;;5.07;;
54929;SDS011;40833;53.238;6.576;2024-02-21T01:34:15;29.40;;;5.33;;
54929;SDS011;40833;53.238;6.576;2024-02-21T01:36:41;26.00;;;5.47;;
54929;SDS011;40833;53.238;6.576;2024-02-21T01:39:07;31.30;;;5.93;;
54929;SDS011;40833;53.238;6.576;2024-02-21T01:41:33;29.73;;;5.47;;
54929;SDS011;40833;53.238;6.576;2024-02-21T01:43:58;22.37;;;5.57;;
54929;SDS011;40833;53.238;6.576;2024-02-21T01:46:24;31.90;;;6.40;;
54929;SDS011;40833;53.238;6.576;2024-02-21T01:48:56;22.23;;;6.57;;
54929;SDS011;40833;53.238;6.576;2024-02-21T01:51:26;22.77;;;5.90;;
54929;SDS011;40833;53.238;6.576;2024-02-21T01:53:52;25.27;;;5.87;;
54929;SDS011;40833;53.238;6.576;2024-02-21T01:56:20;20.33;;;5.00;;
54929;SDS011;40833;53.238;6.576;2024-02-21T01:58:47;19.30;;;5.27;;
54929;SDS011;40833;53.238;6.576;2024-02-21T02:01:14;19.33;;;5.03;;
54929;SDS011;40833;53.238;6.576;2024-02-21T02:03:39;20.10;;;5.70;;
54929;SDS011;40833;53.238;6.576;2024-02-21T02:06:06;18.97;;;4.67;;
54929;SDS011;40833;53.238;6.576;2024-02-21T02:08:31;23.47;;;5.70;;
54929;SDS011;40833;53.238;6.576;2024-02-21T02:10:58;15.73;;;4.90;;
54929;SDS011;40833;53.238;6.576;2024-02-21T02:13:24;15.17;;;4.60;;
54929;SDS011;40833;53.238;6.576;2024-02-21T02:15:50;18.67;;;4.87;;
54929;SDS011;40833;53.238;6.576;2024-02-21T02:18:16;13.33;;;4.60;;
54929;SDS011;40833;53.238;6.576;2024-02-21T02:20:43;18.67;;;5.13;;
54929;SDS011;40833;53.238;6.576;2024-02-21T02:23:11;22.43;;;4.97;;
54929;SDS011;40833;53.238;6.576;2024-02-21T02:25:57;17.23;;;4.67;;
54929;SDS011;40833;53.238;6.576;2024-02-21T02:28:23;21.13;;;5.50;;
54929;SDS011;40833;53.238;6.576;2024-02-21T02:30:49;26.00;;;5.53;;
54929;SDS011;40833;53.238;6.576;2024-02-21T02:33:15;27.07;;;4.87;;
54929;SDS011;40833;53.238;6.576;2024-02-21T02:35:44;28.23;;;5.80;;
54929;SDS011;40833;53.238;6.576;2024-02-21T02:38:10;16.83;;;4.30;;
54929;SDS011;40833;53.238;6.576;2024-02-21T02:40:37;26.43;;;5.53;;
54929;SDS011;40833;53.238;6.576;2024-02-21T02:43:04;30.20;;;6.40;;
54929;SDS011;40833;53.238;6.576;2024-02-21T02:45:30;23.07;;;4.97;;
54929;SDS011;40833;53.238;6.576;2024-02-21T02:47:56;18.53;;;5.00;;
54929;SDS011;40833;53.238;6.576;2024-02-21T02:50:22;28.87;;;5.07;;
54929;SDS011;40833;53.238;6.576;2024-02-21T02:52:49;26.20;;;4.63;;
54929;SDS011;40833;53.238;6.576;2024-02-21T02:55:14;29.03;;;5.00;;
54929;SDS011;40833;53.238;6.576;2024-02-21T02:57:40;26.27;;;4.60;;
54929;SDS011;40833;53.238;6.576;2024-02-21T03:00:10;26.00;;;5.17;;
54929;SDS011;40833;53.238;6.576;2024-02-21T03:02:37;31.47;;;5.07;;
54929;SDS011;40833;53.238;6.576;2024-02-21T03:05:12;28.53;;;4.97;;
54929;SDS011;40833;53.238;6.576;2024-02-21T03:07:40;33.53;;;5.70;;
54929;SDS011;40833;53.238;6.576;2024-02-21T03:10:06;28.17;;;5.53;;
54929;SDS011;40833;53.238;6.576;2024-02-21T03:12:32;32.77;;;5.93;;
54929;SDS011;40833;53.238;6.576;2024-02-21T03:14:57;28.67;;;5.33;;
54929;SDS011;40833;53.238;6.576;2024-02-21T03:17:23;28.37;;;5.40;;
54929;SDS011;40833;53.238;6.576;2024-02-21T03:19:50;26.27;;;5.10;;
54929;SDS011;40833;53.238;6.576;2024-02-21T03:22:16;32.97;;;5.70;;
54929;SDS011;40833;53.238;6.576;2024-02-21T03:24:42;37.23;;;5.87;;
54929;SDS011;40833;53.238;6.576;2024-02-21T03:27:08;42.73;;;6.73;;
54929;SDS011;40833;53.238;6.576;2024-02-21T03:29:34;32.03;;;6.10;;
54929;SDS011;40833;53.238;6.576;2024-02-21T03:32:00;29.20;;;5.30;;
54929;SDS011;40833;53.238;6.576;2024-02-21T03:34:26;36.10;;;5.87;;
54929;SDS011;40833;53.238;6.576;2024-02-21T03:36:52;37.97;;;5.90;;
54929;SDS011;40833;53.238;6.576;2024-02-21T03:39:18;35.67;;;4.90;;
54929;SDS011;40833;53.238;6.576;2024-02-21T03:41:43;32.77;;;4.90;;
54929;SDS011;40833;53.238;6.576;2024-02-21T03:44:09;33.20;;;5.90;;
54929;SDS011;40833;53.238;6.576;2024-02-21T03:46:35;35.33;;;5.53;;
54929;SDS011;40833;53.238;6.576;2024-02-21T03:49:00;34.77;;;5.40;;
54929;SDS011;40833;53.238;6.576;2024-02-21T03:51:26;38.80;;;5.50;;
54929;SDS011;40833;53.238;6.576;2024-02-21T03:53:52;38.57;;;5.57;;
54929;SDS011;40833;53.238;6.576;2024-02-21T03:56:17;32.73;;;4.80;;
54929;SDS011;40833;53.238;6.576;2024-02-21T03:58:43;40.20;;;5.73;;
54929;SDS011;40833;53.238;6.576;2024-02-21T04:01:09;34.50;;;5.73;;
54929;SDS011;40833;53.238;6.576;2024-02-21T04:03:34;36.17;;;5.10;;
54929;SDS011;40833;53.238;6.576;2024-02-21T04:06:00;31.47;;;5.17;;
54929;SDS011;40833;53.238;6.576;2024-02-21T04:08:26;31.47;;;6.90;;
54929;SDS011;40833;53.238;6.576;2024-02-21T04:10:51;32.67;;;5.37;;
54929;SDS011;40833;53.238;6.576;2024-02-21T04:13:17;36.77;;;6.40;;
54929;SDS011;40833;53.238;6.576;2024-02-21T04:15:43;27.70;;;5.83;;
54929;SDS011;40833;53.238;6.576;2024-02-21T04:18:08;53.20;;;7.13;;
54929;SDS011;40833;53.238;6.576;2024-02-21T04:20:34;44.10;;;6.80;;
54929;SDS011;40833;53.238;6.576;2024-02-21T04:23:00;35.47;;;7.20;;
54929;SDS011;40833;53.238;6.576;2024-02-21T04:25:26;39.30;;;6.13;;
54929;SDS011;40833;53.238;6.576;2024-02-21T04:27:52;35.53;;;6.23;;
54929;SDS011;40833;53.238;6.576;2024-02-21T04:30:18;41.07;;;6.80;;
54929;SDS011;40833;53.238;6.576;2024-02-21T04:32:43;29.80;;;5.47;;
54929;SDS011;40833;53.238;6.576;2024-02-21T04:35:09;46.50;;;6.67;;
54929;SDS011;40833;53.238;6.576;2024-02-21T04:37:35;38.57;;;6.47;;
54929;SDS011;40833;53.238;6.576;2024-02-21T04:40:00;38.23;;;6.07;;
54929;SDS011;40833;53.238;6.576;2024-02-21T04:42:26;32.67;;;5.47;;
54929;SDS011;40833;53.238;6.576;2024-02-21T04:44:52;38.43;;;6.33;;
54929;SDS011;40833;53.238;6.576;2024-02-21T04:47:18;38.83;;;6.33;;
54929;SDS011;40833;53.238;6.576;2024-02-21T04:49:45;32.90;;;5.23;;
54929;SDS011;40833;53.238;6.576;2024-02-21T04:52:11;39.40;;;5.90;;
54929;SDS011;40833;53.238;6.576;2024-02-21T04:54:37;31.33;;;5.53;;
54929;SDS011;40833;53.238;6.576;2024-02-21T04:57:03;37.03;;;5.90;;
54929;SDS011;40833;53.238;6.576;2024-02-21T04:59:29;32.93;;;5.27;;
54929;SDS011;40833;53.238;6.576;2024-02-21T05:01:55;32.87;;;5.27;;
54929;SDS011;40833;53.238;6.576;2024-02-21T05:04:20;32.63;;;5.00;;
54929;SDS011;40833;53.238;6.576;2024-02-21T05:06:46;40.27;;;7.37;;
54929;SDS011;40833;53.238;6.576;2024-02-21T05:09:12;33.63;;;5.83;;
54929;SDS011;40833;53.238;6.576;2024-02-21T05:11:37;29.87;;;5.93;;
54929;SDS011;40833;53.238;6.576;2024-02-21T05:14:03;32.70;;;5.70;;
54929;SDS011;40833;53.238;6.576;2024-02-21T05:16:30;35.80;;;5.77;;
54929;SDS011;40833;53.238;6.576;2024-02-21T05:18:56;31.57;;;5.53;;
54929;SDS011;40833;53.238;6.576;2024-02-21T05:21:25;36.43;;;6.57;;
54929;SDS011;40833;53.238;6.576;2024-02-21T05:23:51;35.30;;;5.87;;
54929;SDS011;40833;53.238;6.576;2024-02-21T05:26:23;31.00;;;5.73;;
54929;SDS011;40833;53.238;6.576;2024-02-21T05:28:50;42.90;;;6.33;;
54929;SDS011;40833;53.238;6.576;2024-02-21T05:31:17;32.93;;;6.57;;
54929;SDS011;40833;53.238;6.576;2024-02-21T05:33:43;31.73;;;5.93;;
54929;SDS011;40833;53.238;6.576;2024-02-21T05:36:10;38.10;;;5.63;;
54929;SDS011;40833;53.238;6.576;2024-02-21T05:38:36;38.73;;;6.10;;
54929;SDS011;40833;53.238;6.576;2024-02-21T05:41:02;42.17;;;6.10;;
54929;SDS011;40833;53.238;6.576;2024-02-21T05:43:28;35.10;;;6.27;;
54929;SDS011;40833;53.238;6.576;2024-02-21T05:45:53;40.73;;;8.97;;
54929;SDS011;40833;53.238;6.576;2024-02-21T05:48:19;37.57;;;7.37;;
54929;SDS011;40833;53.238;6.576;2024-02-21T05:50:47;39.30;;;6.23;;
54929;SDS011;40833;53.238;6.576;2024-02-21T05:53:13;42.93;;;6.20;;
54929;SDS011;40833;53.238;6.576;2024-02-21T05:55:38;34.00;;;6.47;;
54929;SDS011;40833;53.238;6.576;2024-02-21T05:58:04;48.10;;;7.70;;
54929;SDS011;40833;53.238;6.576;2024-02-21T06:00:31;37.53;;;6.43;;
54929;SDS011;40833;53.238;6.576;2024-02-21T06:02:57;35.23;;;6.20;;
54929;SDS011;40833;53.238;6.576;2024-02-21T06:05:23;32.37;;;6.07;;
54929;SDS011;40833;53.238;6.576;2024-02-21T06:07:49;30.37;;;6.10;;
54929;SDS011;40833;53.238;6.576;2024-02-21T06:10:14;36.50;;;6.13;;
54929;SDS011;40833;53.238;6.576;2024-02-21T06:12:40;27.33;;;6.20;;
54929;SDS011;40833;53.238;6.576;2024-02-21T06:15:06;36.10;;;6.77;;
54929;SDS011;40833;53.238;6.576;2024-02-21T06:17:32;35.33;;;5.77;;
54929;SDS011;40833;53.238;6.576;2024-02-21T06:19:58;44.43;;;6.73;;
54929;SDS011;40833;53.238;6.576;2024-02-21T06:22:23;39.03;;;6.60;;
54929;SDS011;40833;53.238;6.576;2024-02-21T06:24:49;37.13;;;7.77;;
54929;SDS011;40833;53.238;6.576;2024-02-21T06:27:15;32.50;;;6.90;;
54929;SDS011;40833;53.238;6.576;2024-02-21T06:29:41;33.83;;;6.77;;
54929;SDS011;40833;53.238;6.576;2024-02-21T06:32:07;38.67;;;7.47;;
54929;SDS011;40833;53.238;6.576;2024-02-21T06:34:33;39.57;;;6.63;;
54929;SDS011;40833;53.238;6.576;2024-02-21T06:36:59;31.93;;;7.37;;
54929;SDS011;40833;53.238;6.576;2024-02-21T06:39:24;31.53;;;6.10;;
54929;SDS011;40833;53.238;6.576;2024-02-21T06:41:50;36.73;;;6.13;;
54929;SDS011;40833;53.238;6.576;2024-02-21T06:44:16;33.13;;;6.43;;
54929;SDS011;40833;53.238;6.576;2024-02-21T06:46:42;33.17;;;6.90;;
54929;SDS011;40833;53.238;6.576;2024-02-21T06:49:08;39.67;;;6.87;;
54929;SDS011;40833;53.238;6.576;2024-02-21T06:51:34;41.83;;;7.00;;
54929;SDS011;40833;53.238;6.576;2024-02-21T06:54:00;28.00;;;5.90;;
54929;SDS011;40833;53.238;6.576;2024-02-21T06:56:26;34.23;;;6.87;;
54929;SDS011;40833;53.238;6.576;2024-02-21T06:58:53;33.53;;;6.63;;
54929;SDS011;40833;53.238;6.576;2024-02-21T07:01:22;39.80;;;7.17;;
54929;SDS011;40833;53.238;6.576;2024-02-21T07:03:51;34.00;;;7.67;;
54929;SDS011;40833;53.238;6.576;2024-02-21T07:06:17;38.33;;;7.10;;
54929;SDS011;40833;53.238;6.576;2024-02-21T07:08:42;39.67;;;8.30;;
54929;SDS011;40833;53.238;6.576;2024-02-21T07:11:08;39.47;;;7.43;;
54929;SDS011;40833;53.238;6.576;2024-02-21T07:13:34;32.93;;;7.87;;
54929;SDS011;40833;53.238;6.576;2024-02-21T07:15:59;35.40;;;8.57;;
54929;SDS011;40833;53.238;6.576;2024-02-21T07:18:25;31.00;;;8.80;;
54929;SDS011;40833;53.238;6.576;2024-02-21T07:20:51;38.97;;;8.33;;
54929;SDS011;40833;53.238;6.576;2024-02-21T07:23:18;42.00;;;9.57;;
54929;SDS011;40833;53.238;6.576;2024-02-21T07:25:44;45.20;;;10.07;;
54929;SDS011;40833;53.238;6.576;2024-02-21T07:28:10;43.47;;;11.07;;
54929;SDS011;40833;53.238;6.576;2024-02-21T07:30:35;49.23;;;11.70;;
54929;SDS011;40833;53.238;6.576;2024-02-21T07:33:01;52.00;;;14.23;;
54929;SDS011;40833;53.238;6.576;2024-02-21T07:35:27;66.60;;;16.60;;
54929;SDS011;40833;53.238;6.576;2024-02-21T07:37:53;63.50;;;16.60;;
54929;SDS011;40833;53.238;6.576;2024-02-21T07:40:19;69.30;;;17.00;;
54929;SDS011;40833;53.238;6.576;2024-02-21T07:42:44;77.73;;;17.27;;
54929;SDS011;40833;53.238;6.576;2024-02-21T07:45:10;70.23;;;18.90;;
54929;SDS011;40833;53.238;6.576;2024-02-21T07:47:36;65.33;;;17.80;;
54929;SDS011;40833;53.238;6.576;2024-02-21T07:50:02;78.30;;;19.30;;
54929;SDS011;40833;53.238;6.576;2024-02-21T07:52:28;77.93;;;17.53;;
54929;SDS011;40833;53.238;6.576;2024-02-21T07:54:54;69.87;;;16.90;;
54929;SDS011;40833;53.238;6.576;2024-02-21T07:57:20;69.30;;;16.17;;
54929;SDS011;40833;53.238;6.576;2024-02-21T07:59:45;66.70;;;13.83;;
54929;SDS011;40833;53.238;6.576;2024-02-21T08:02:13;51.63;;;12.83;;
54929;SDS011;40833;53.238;6.576;2024-02-21T08:04:42;69.47;;;11.10;;
54929;SDS011;40833;53.238;6.576;2024-02-21T08:07:08;48.13;;;10.83;;
54929;SDS011;40833;53.238;6.576;2024-02-21T08:09:34;57.00;;;10.60;;
54929;SDS011;40833;53.238;6.576;2024-02-21T08:12:02;36.73;;;8.30;;
54929;SDS011;40833;53.238;6.576;2024-02-21T08:14:29;30.97;;;7.13;;
54929;SDS011;40833;53.238;6.576;2024-02-21T08:16:55;28.80;;;7.07;;
54929;SDS011;40833;53.238;6.576;2024-02-21T08:19:21;35.83;;;6.70;;
54929;SDS011;40833;53.238;6.576;2024-02-21T08:21:50;29.30;;;7.70;;
54929;SDS011;40833;53.238;6.576;2024-02-21T08:24:15;29.73;;;5.70;;
54929;SDS011;40833;53.238;6.576;2024-02-21T08:26:42;25.73;;;6.13;;
54929;SDS011;40833;53.238;6.576;2024-02-21T08:29:09;26.03;;;5.03;;
54929;SDS011;40833;53.238;6.576;2024-02-21T08:31:36;29.43;;;5.63;;
54929;SDS011;40833;53.238;6.576;2024-02-21T08:34:02;25.33;;;5.70;;
54929;SDS011;40833;53.238;6.576;2024-02-21T08:36:35;29.90;;;6.73;;
54929;SDS011;40833;53.238;6.576;2024-02-21T08:41:30;25.27;;;6.37;;
54929;SDS011;40833;53.238;6.576;2024-02-21T08:43:56;23.83;;;5.97;;
54929;SDS011;40833;53.238;6.576;2024-02-21T08:46:22;20.90;;;5.27;;
54929;SDS011;40833;53.238;6.576;2024-02-21T08:48:49;29.43;;;5.70;;
54929;SDS011;40833;53.238;6.576;2024-02-21T08:51:16;26.70;;;6.47;;
54929;SDS011;40833;53.238;6.576;2024-02-21T08:53:46;24.87;;;5.80;;
54929;SDS011;40833;53.238;6.576;2024-02-21T08:56:12;30.63;;;6.97;;
54929;SDS011;40833;53.238;6.576;2024-02-21T08:58:41;23.63;;;7.00;;
54929;SDS011;40833;53.238;6.576;2024-02-21T09:01:07;24.07;;;6.23;;
54929;SDS011;40833;53.238;6.576;2024-02-21T09:03:38;28.80;;;7.27;;
54929;SDS011;40833;53.238;6.576;2024-02-21T09:06:05;28.07;;;7.57;;
54929;SDS011;40833;53.238;6.576;2024-02-21T09:08:31;30.97;;;8.33;;
54929;SDS011;40833;53.238;6.576;2024-02-21T09:10:57;27.00;;;8.10;;
54929;SDS011;40833;53.238;6.576;2024-02-21T09:13:23;38.40;;;10.23;;
54929;SDS011;40833;53.238;6.576;2024-02-21T09:15:49;22.30;;;8.67;;
54929;SDS011;40833;53.238;6.576;2024-02-21T09:18:15;30.50;;;8.53;;
54929;SDS011;40833;53.238;6.576;2024-02-21T09:20:42;29.07;;;10.67;;
54929;SDS011;40833;53.238;6.576;2024-02-21T09:23:07;25.77;;;10.87;;
54929;SDS011;40833;53.238;6.576;2024-02-21T09:25:33;29.40;;;10.63;;
54929;SDS011;40833;53.238;6.576;2024-02-21T09:28:00;33.20;;;11.83;;
54929;SDS011;40833;53.238;6.576;2024-02-21T09:30:27;30.77;;;12.90;;
54929;SDS011;40833;53.238;6.576;2024-02-21T09:32:52;32.40;;;13.87;;
54929;SDS011;40833;53.238;6.576;2024-02-21T09:35:18;30.20;;;13.20;;
54929;SDS011;40833;53.238;6.576;2024-02-21T09:37:44;34.73;;;14.63;;
54929;SDS011;40833;53.238;6.576;2024-02-21T09:40:10;28.90;;;15.27;;
54929;SDS011;40833;53.238;6.576;2024-02-21T09:42:40;40.07;;;15.50;;
54929;SDS011;40833;53.238;6.576;2024-02-21T09:45:27;30.70;;;14.17;;
54929;SDS011;40833;53.238;6.576;2024-02-21T09:50:34;31.73;;;14.50;;
54929;SDS011;40833;53.238;6.576;2024-02-21T09:53:01;32.33;;;14.67;;
54929;SDS011;40833;53.238;6.576;2024-02-21T09:55:30;33.83;;;14.63;;
54929;SDS011;40833;53.238;6.576;2024-02-21T09:57:59;31.07;;;14.07;;
54929;SDS011;40833;53.238;6.576;2024-02-21T10:00:26;33.20;;;16.17;;
54929;SDS011;40833;53.238;6.576;2024-02-21T10:02:53;31.30;;;14.87;;
54929;SDS011;40833;53.238;6.576;2024-02-21T10:05:19;29.90;;;14.80;;
54929;SDS011;40833;53.238;6.576;2024-02-21T10:07:45;34.30;;;15.80;;
54929;SDS011;40833;53.238;6.576;2024-02-21T10:10:10;26.90;;;15.13;;
54929;SDS011;40833;53.238;6.576;2024-02-21T10:12:36;23.97;;;14.33;;
54929;SDS011;40833;53.238;6.576;2024-02-21T10:15:19;30.33;;;15.70;;
54929;SDS011;40833;53.238;6.576;2024-02-21T10:17:46;23.40;;;13.50;;
54929;SDS011;40833;53.238;6.576;2024-02-21T10:20:12;21.97;;;13.87;;
54929;SDS011;40833;53.238;6.576;2024-02-21T10:22:39;26.63;;;14.47;;
54929;SDS011;40833;53.238;6.576;2024-02-21T10:25:11;24.87;;;14.67;;
54929;SDS011;40833;53.238;6.576;2024-02-21T10:27:40;29.67;;;14.57;;
54929;SDS011;40833;53.238;6.576;2024-02-21T10:30:13;26.90;;;13.20;;
54929;SDS011;40833;53.238;6.576;2024-02-21T10:32:55;22.63;;;14.70;;
54929;SDS011;40833;53.238;6.576;2024-02-21T10:35:31;27.25;;;14.90;;
54929;SDS011;40833;53.238;6.576;2024-02-21T10:37:58;29.97;;;15.13;;
54929;SDS011;40833;53.238;6.576;2024-02-21T10:40:27;27.50;;;15.37;;
54929;SDS011;40833;53.238;6.576;2024-02-21T10:42:57;23.10;;;15.47;;
54929;SDS011;40833;53.238;6.576;2024-02-21T10:45:30;28.20;;;16.27;;
54929;SDS011;40833;53.238;6.576;2024-02-21T10:48:01;27.80;;;16.10;;
54929;SDS011;40833;53.238;6.576;2024-02-21T10:50:27;36.97;;;16.43;;
54929;SDS011;40833;53.238;6.576;2024-02-21T10:53:14;32.57;;;17.43;;
54929;SDS011;40833;53.238;6.576;2024-02-21T10:56:16;31.33;;;17.23;;
54929;SDS011;40833;53.238;6.576;2024-02-21T10:59:00;24.67;;;16.63;;
54929;SDS011;40833;53.238;6.576;2024-02-21T11:01:27;33.27;;;17.17;;
54929;SDS011;40833;53.238;6.576;2024-02-21T11:03:56;28.67;;;16.60;;
54929;SDS011;40833;53.238;6.576;2024-02-21T11:06:24;27.13;;;16.83;;
54929;SDS011;40833;53.238;6.576;2024-02-21T11:09:04;25.97;;;16.80;;
54929;SDS011;40833;53.238;6.576;2024-02-21T11:11:35;31.30;;;17.43;;
54929;SDS011;40833;53.238;6.576;2024-02-21T11:14:18;33.87;;;17.63;;
54929;SDS011;40833;53.238;6.576;2024-02-21T11:16:45;30.70;;;15.60;;
54929;SDS011;40833;53.238;6.576;2024-02-21T11:19:27;24.87;;;15.57;;
54929;SDS011;40833;53.238;6.576;2024-02-21T11:21:54;32.17;;;16.27;;
54929;SDS011;40833;53.238;6.576;2024-02-21T11:24:34;23.50;;;14.80;;
54929;SDS011;40833;53.238;6.576;2024-02-21T11:27:20;27.63;;;15.50;;
54929;SDS011;40833;53.238;6.576;2024-02-21T11:29:56;24.33;;;14.17;;
54929;SDS011;40833;53.238;6.576;2024-02-21T11:32:23;24.00;;;14.00;;
54929;SDS011;40833;53.238;6.576;2024-02-21T11:37:19;23.17;;;13.37;;
54929;SDS011;40833;53.238;6.576;2024-02-21T11:39:45;20.97;;;12.60;;
54929;SDS011;40833;53.238;6.576;2024-02-21T11:42:10;18.97;;;13.70;;
54929;SDS011;40833;53.238;6.576;2024-02-21T11:44:37;21.40;;;12.70;;
54929;SDS011;40833;53.238;6.576;2024-02-21T11:47:05;22.03;;;12.17;;
54929;SDS011;40833;53.238;6.576;2024-02-21T11:49:37;18.33;;;10.53;;
54929;SDS011;40833;53.238;6.576;2024-02-21T11:52:06;23.23;;;11.70;;
54929;SDS011;40833;53.238;6.576;2024-02-21T11:54:33;20.07;;;11.70;;
54929;SDS011;40833;53.238;6.576;2024-02-21T11:56:59;22.00;;;11.23;;
54929;SDS011;40833;53.238;6.576;2024-02-21T11:59:26;20.00;;;11.00;;
54929;SDS011;40833;53.238;6.576;2024-02-21T12:01:54;23.37;;;13.10;;
54929;SDS011;40833;53.238;6.576;2024-02-21T12:04:21;14.33;;;10.87;;
54929;SDS011;40833;53.238;6.576;2024-02-21T12:06:49;18.20;;;11.27;;
54929;SDS011;40833;53.238;6.576;2024-02-21T12:09:15;18.13;;;10.57;;
54929;SDS011;40833;53.238;6.576;2024-02-21T12:11:41;17.13;;;10.67;;
54929;SDS011;40833;53.238;6.576;2024-02-21T12:14:08;19.43;;;10.67;;
54929;SDS011;40833;53.238;6.576;2024-02-21T12:16:34;21.83;;;11.10;;
54929;SDS011;40833;53.238;6.576;2024-02-21T12:19:02;18.23;;;9.77;;
54929;SDS011;40833;53.238;6.576;2024-02-21T12:21:32;20.73;;;10.30;;
54929;SDS011;40833;53.238;6.576;2024-02-21T12:24:15;15.63;;;9.73;;
54929;SDS011;40833;53.238;6.576;2024-02-21T12:26:41;24.63;;;9.63;;
54929;SDS011;40833;53.238;6.576;2024-02-21T12:29:07;16.93;;;8.17;;
54929;SDS011;40833;53.238;6.576;2024-02-21T12:31:35;15.10;;;9.23;;
54929;SDS011;40833;53.238;6.576;2024-02-21T12:34:02;14.93;;;8.83;;
54929;SDS011;40833;53.238;6.576;2024-02-21T12:36:27;21.87;;;9.27;;
54929;SDS011;40833;53.238;6.576;2024-02-21T12:38:53;20.33;;;9.13;;
54929;SDS011;40833;53.238;6.576;2024-02-21T12:41:20;17.10;;;9.40;;
54929;SDS011;40833;53.238;6.576;2024-02-21T12:43:45;14.57;;;8.03;;
54929;SDS011;40833;53.238;6.576;2024-02-21T12:46:12;14.77;;;8.47;;
54929;SDS011;40833;53.238;6.576;2024-02-21T12:48:38;19.10;;;8.03;;
54929;SDS011;40833;53.238;6.576;2024-02-21T12:51:04;18.77;;;8.43;;
54929;SDS011;40833;53.238;6.576;2024-02-21T12:53:30;14.57;;;8.10;;
54929;SDS011;40833;53.238;6.576;2024-02-21T12:55:56;16.30;;;8.03;;
54929;SDS011;40833;53.238;6.576;2024-02-21T12:58:22;15.43;;;7.57;;
54929;SDS011;40833;53.238;6.576;2024-02-21T13:00:48;15.73;;;8.43;;
54929;SDS011;40833;53.238;6.576;2024-02-21T13:03:13;10.87;;;6.93;;
54929;SDS011;40833;53.238;6.576;2024-02-21T13:05:39;13.40;;;7.57;;
54929;SDS011;40833;53.238;6.576;2024-02-21T13:08:05;11.67;;;7.93;;
54929;SDS011;40833;53.238;6.576;2024-02-21T13:10:31;11.37;;;6.63;;
54929;SDS011;40833;53.238;6.576;2024-02-21T13:12:59;15.57;;;7.43;;
54929;SDS011;40833;53.238;6.576;2024-02-21T13:15:25;10.87;;;6.50;;
54929;SDS011;40833;53.238;6.576;2024-02-21T13:17:53;10.33;;;6.60;;
54929;SDS011;40833;53.238;6.576;2024-02-21T13:20:19;11.77;;;6.47;;
54929;SDS011;40833;53.238;6.576;2024-02-21T13:22:45;10.43;;;6.27;;
54929;SDS011;40833;53.238;6.576;2024-02-21T13:25:11;9.10;;;5.73;;
54929;SDS011;40833;53.238;6.576;2024-02-21T13:27:40;9.37;;;6.10;;
54929;SDS011;40833;53.238;6.576;2024-02-21T13:30:06;11.73;;;6.20;;
54929;SDS011;40833;53.238;6.576;2024-02-21T13:32:34;10.90;;;6.53;;
54929;SDS011;40833;53.238;6.576;2024-02-21T13:35:00;11.93;;;6.50;;
54929;SDS011;40833;53.238;6.576;2024-02-21T13:37:28;11.83;;;6.03;;
54929;SDS011;40833;53.238;6.576;2024-02-21T13:39:54;9.40;;;5.73;;
54929;SDS011;40833;53.238;6.576;2024-02-21T13:42:20;9.33;;;5.57;;
54929;SDS011;40833;53.238;6.576;2024-02-21T13:44:45;9.27;;;5.50;;
54929;SDS011;40833;53.238;6.576;2024-02-21T13:47:12;10.40;;;5.30;;
54929;SDS011;40833;53.238;6.576;2024-02-21T13:49:39;8.90;;;5.13;;
54929;SDS011;40833;53.238;6.576;2024-02-21T13:52:05;9.53;;;5.83;;
54929;SDS011;40833;53.238;6.576;2024-02-21T13:54:31;8.00;;;5.10;;
54929;SDS011;40833;53.238;6.576;2024-02-21T13:56:56;5.10;;;4.57;;
54929;SDS011;40833;53.238;6.576;2024-02-21T13:59:22;11.70;;;4.80;;
54929;SDS011;40833;53.238;6.576;2024-02-21T14:01:48;9.03;;;4.83;;
54929;SDS011;40833;53.238;6.576;2024-02-21T14:04:13;6.53;;;4.33;;
54929;SDS011;40833;53.238;6.576;2024-02-21T14:06:39;7.10;;;5.07;;
54929;SDS011;40833;53.238;6.576;2024-02-21T14:09:14;5.70;;;4.43;;
54929;SDS011;40833;53.238;6.576;2024-02-21T14:11:40;5.85;;;4.50;;
54929;SDS011;40833;53.238;6.576;2024-02-21T14:14:06;7.33;;;4.63;;
54929;SDS011;40833;53.238;6.576;2024-02-21T14:16:32;8.03;;;5.13;;
54929;SDS011;40833;53.238;6.576;2024-02-21T14:18:58;8.03;;;4.27;;
54929;SDS011;40833;53.238;6.576;2024-02-21T14:21:24;5.47;;;4.20;;
54929;SDS011;40833;53.238;6.576;2024-02-21T14:23:50;5.03;;;4.27;;
54929;SDS011;40833;53.238;6.576;2024-02-21T14:26:17;4.90;;;4.33;;
54929;SDS011;40833;53.238;6.576;2024-02-21T14:28:43;5.00;;;4.03;;
54929;SDS011;40833;53.238;6.576;2024-02-21T14:31:09;4.77;;;4.23;;
54929;SDS011;40833;53.238;6.576;2024-02-21T14:33:35;6.77;;;4.40;;
54929;SDS011;40833;53.238;6.576;2024-02-21T14:36:01;5.87;;;4.27;;
54929;SDS011;40833;53.238;6.576;2024-02-21T14:38:27;8.43;;;5.03;;
54929;SDS011;40833;53.238;6.576;2024-02-21T14:40:53;10.07;;;4.97;;